Time;durP1;ratioP1;P1;durP2;ratioP2;P2;SDS_P1;SDS_P2;PMS_P1;PMS_P2;Temp;Humidity;BMP_temperature;BMP_pressure;BME280_temperature;BME280_humidity;BME280_pressure;Samples;Min_cycle;Max_cycle;Signal;HPM_P1;HPM_P2
2023/04/01 00:00:53;;;;;;;19.02;9.10;;;10.30;92.30;;;;;;5008082;28;20044;-75
2023/04/01 00:03:21;;;;;;;18.48;8.48;;;10.30;92.30;;;;;;5014624;28;20026;-73
2023/04/01 00:05:47;;;;;;;19.90;8.50;;;10.20;92.30;;;;;;5009303;28;20018;-75
2023/04/01 00:08:13;;;;;;;13.23;6.18;;;10.30;92.50;;;;;;5014513;28;20030;-74
2023/04/01 00:10:39;;;;;;;14.77;5.55;;;10.30;92.30;;;;;;5008355;28;21900;-75
2023/04/01 00:13:05;;;;;;;13.07;5.13;;;10.30;92.30;;;;;;5011001;28;20036;-74
2023/04/01 00:15:31;;;;;;;16.70;7.05;;;10.30;92.30;;;;;;5008384;28;20032;-74
2023/04/01 00:17:56;;;;;;;18.95;8.80;;;10.30;92.40;;;;;;4992214;28;20042;-75
2023/04/01 00:20:22;;;;;;;18.63;9.98;;;10.30;92.30;;;;;;5010487;28;20048;-74
2023/04/01 00:22:48;;;;;;;16.92;9.57;;;10.30;92.40;;;;;;5008848;28;20078;-74
2023/04/01 00:25:14;;;;;;;15.93;9.15;;;10.20;92.30;;;;;;5008679;28;20433;-75
2023/04/01 00:27:40;;;;;;;19.13;8.88;;;10.20;92.30;;;;;;5009677;28;20030;-74
2023/04/01 00:30:07;;;;;;;18.05;9.93;;;10.20;92.40;;;;;;5022771;28;20018;-74
2023/04/01 00:32:33;;;;;;;17.15;10.43;;;10.10;92.60;;;;;;5021661;28;20036;-75
2023/04/01 00:34:59;;;;;;;18.75;10.70;;;10.10;92.60;;;;;;5018200;28;20030;-72
2023/04/01 00:37:26;;;;;;;19.60;11.20;;;10.20;92.70;;;;;;5008705;28;20037;-77
2023/04/01 00:39:51;;;;;;;21.38;11.82;;;10.20;92.70;;;;;;5003450;28;20058;-75
2023/04/01 00:42:17;;;;;;;20.63;10.50;;;10.20;92.70;;;;;;5024442;28;20073;-74
2023/04/01 00:44:47;;;;;;;22.98;10.18;;;10.20;92.80;;;;;;5008461;28;20057;-74
2023/04/01 00:47:14;;;;;;;22.98;9.90;;;10.20;92.70;;;;;;5008949;28;20050;-76
2023/04/01 00:49:44;;;;;;;23.35;9.00;;;10.10;92.70;;;;;;5005327;28;20053;-74
2023/04/01 00:52:13;;;;;;;21.35;7.85;;;10.10;92.60;;;;;;5009823;28;20391;-74
2023/04/01 00:54:42;;;;;;;17.35;6.97;;;10.00;92.60;;;;;;5007961;28;20033;-75
2023/04/01 00:57:31;;;;;;;18.67;7.15;;;10.00;92.60;;;;;;5007671;28;20109;-75
2023/04/01 00:59:57;;;;;;;18.30;6.75;;;10.10;92.60;;;;;;5010442;28;20026;-75
2023/04/01 01:02:23;;;;;;;22.60;6.95;;;10.00;92.70;;;;;;5007626;28;20045;-75
2023/04/01 01:04:49;;;;;;;22.27;7.75;;;10.00;92.80;;;;;;5008134;28;20038;-75
2023/04/01 01:07:32;;;;;;;21.83;6.63;;;9.90;92.90;;;;;;5007497;28;20053;-73
2023/04/01 01:10:04;;;;;;;27.13;6.93;;;9.90;92.90;;;;;;5008095;28;20147;-75
2023/04/01 01:12:41;;;;;;;18.33;6.88;;;9.90;92.80;;;;;;5008185;28;20095;-76
2023/04/01 01:15:15;;;;;;;24.85;6.88;;;9.90;92.90;;;;;;5003912;28;20034;-75
2023/04/01 01:18:01;;;;;;;20.17;7.03;;;9.90;92.80;;;;;;5000395;28;20542;-73
2023/04/01 01:20:29;;;;;;;21.85;6.38;;;9.80;92.70;;;;;;5002953;28;20026;-74
2023/04/01 01:22:55;;;;;;;21.40;6.50;;;9.80;92.80;;;;;;5008682;28;20038;-76
2023/04/01 01:25:39;;;;;;;25.35;7.68;;;9.80;92.90;;;;;;5004110;28;20036;-75
2023/04/01 01:28:43;;;;;;;22.27;6.78;;;9.70;92.90;;;;;;5004307;28;20125;-75
2023/04/01 01:31:25;;;;;;;22.52;6.40;;;9.80;92.80;;;;;;5000218;28;20425;-75
2023/04/01 01:33:59;;;;;;;26.10;7.18;;;9.80;92.90;;;;;;5022543;28;20441;-75
2023/04/01 01:36:29;;;;;;;21.25;7.38;;;9.80;92.90;;;;;;5004097;28;20044;-76
2023/04/01 01:38:55;;;;;;;23.25;7.43;;;9.80;93.00;;;;;;5008375;28;20018;-75
2023/04/01 01:41:23;;;;;;;20.15;7.93;;;9.70;93.10;;;;;;5001285;28;20103;-75
2023/04/01 01:43:51;;;;;;;21.63;7.57;;;9.80;93.30;;;;;;5004538;28;20037;-77
2023/04/01 01:46:22;;;;;;;21.35;8.13;;;9.80;93.30;;;;;;5006557;28;20049;-75
2023/04/01 01:48:50;;;;;;;24.80;9.40;;;9.80;93.40;;;;;;5006459;28;20080;-75
2023/04/01 01:51:17;;;;;;;20.65;8.20;;;9.80;93.50;;;;;;5007081;28;20121;-75
2023/04/01 01:53:43;;;;;;;26.30;8.90;;;9.80;93.60;;;;;;5006427;28;20251;-75
2023/04/01 01:56:12;;;;;;;25.50;9.40;;;9.80;93.60;;;;;;5005476;28;20117;-74
2023/04/01 01:58:43;;;;;;;29.10;9.75;;;9.80;93.70;;;;;;5004290;28;20065;-74
2023/04/01 02:01:19;;;;;;;25.13;9.15;;;9.80;93.70;;;;;;5005639;28;20513;-75
2023/04/01 02:03:46;;;;;;;25.75;9.70;;;9.80;93.70;;;;;;5006840;28;20022;-74
2023/04/01 02:06:16;;;;;;;21.85;9.45;;;9.80;93.60;;;;;;5006591;28;20033;-74
2023/04/01 02:09:02;;;;;;;24.05;8.68;;;9.80;93.40;;;;;;5009378;28;20059;-74
2023/04/01 02:11:52;;;;;;;22.08;8.65;;;9.80;93.10;;;;;;5007964;28;20128;-74
2023/04/01 02:14:37;;;;;;;22.80;7.82;;;9.80;93.00;;;;;;5003627;28;20050;-73
2023/04/01 02:17:09;;;;;;;23.90;8.27;;;9.70;92.70;;;;;;5006084;28;20207;-74
2023/04/01 02:19:47;;;;;;;21.67;7.97;;;9.80;92.60;;;;;;5022593;28;20422;-74
2023/04/01 02:22:17;;;;;;;26.10;6.97;;;9.80;92.40;;;;;;5007039;28;20069;-74
2023/04/01 02:24:45;;;;;;;19.70;6.70;;;9.80;92.30;;;;;;4996648;28;20022;-73
2023/04/01 02:27:11;;;;;;;18.42;6.50;;;9.80;92.20;;;;;;5002719;28;20060;-74
2023/04/01 02:29:38;;;;;;;22.45;7.47;;;9.80;92.00;;;;;;5001502;28;20544;-73
2023/04/01 02:32:05;;;;;;;18.77;6.55;;;9.90;92.00;;;;;;5005658;28;20544;-75
2023/04/01 02:34:31;;;;;;;19.75;7.32;;;9.90;91.90;;;;;;5000646;28;20121;-74
2023/04/01 02:36:57;;;;;;;20.20;6.90;;;9.90;91.90;;;;;;5006967;28;20034;-74
2023/04/01 02:39:25;;;;;;;17.27;6.72;;;9.90;91.70;;;;;;5006832;28;20084;-74
2023/04/01 02:41:51;;;;;;;15.95;6.93;;;9.90;91.60;;;;;;5005895;28;20038;-74
2023/04/01 02:44:17;;;;;;;19.45;7.30;;;9.90;91.50;;;;;;5004231;28;20037;-74
2023/04/01 02:46:43;;;;;;;17.38;6.90;;;9.90;91.60;;;;;;5009970;28;20399;-76
2023/04/01 02:49:08;;;;;;;17.60;7.18;;;9.90;91.50;;;;;;4996478;28;20026;-74
2023/04/01 02:51:34;;;;;;;20.33;6.65;;;9.90;91.50;;;;;;5004310;28;20088;-75
2023/04/01 02:54:01;;;;;;;16.95;7.63;;;9.90;91.60;;;;;;5002387;28;20034;-74
2023/04/01 02:56:26;;;;;;;17.27;7.60;;;9.90;91.60;;;;;;5007226;28;20548;-74
2023/04/01 02:58:53;;;;;;;15.70;8.07;;;9.90;91.60;;;;;;5007119;28;20030;-74
2023/04/01 03:01:19;;;;;;;15.02;7.70;;;9.90;91.60;;;;;;4998076;28;20046;-74
2023/04/01 03:03:45;;;;;;;17.88;8.35;;;9.90;91.70;;;;;;5009385;28;20029;-74
2023/04/01 03:06:13;;;;;;;16.02;8.10;;;9.80;91.60;;;;;;5006519;28;20111;-74
2023/04/01 03:08:39;;;;;;;17.58;7.65;;;9.80;91.70;;;;;;5017561;28;20081;-74
2023/04/01 03:11:05;;;;;;;16.08;8.52;;;9.90;91.70;;;;;;5019740;28;20120;-74
2023/04/01 03:13:31;;;;;;;13.15;6.97;;;9.90;91.70;;;;;;5005077;28;20034;-75
2023/04/01 03:15:57;;;;;;;13.95;7.80;;;9.80;91.70;;;;;;4980133;28;20023;-75
2023/04/01 03:18:23;;;;;;;18.63;7.47;;;9.90;91.50;;;;;;4999835;28;20065;-75
2023/04/01 03:20:49;;;;;;;17.23;8.57;;;9.80;91.50;;;;;;5003462;28;20088;-74
2023/04/01 03:23:17;;;;;;;16.45;8.27;;;9.90;91.50;;;;;;5008167;28;20737;-74
2023/04/01 03:25:42;;;;;;;17.23;8.63;;;9.90;91.60;;;;;;5005797;28;20042;-74
2023/04/01 03:28:08;;;;;;;19.00;9.40;;;9.90;91.80;;;;;;5007817;28;20431;-74
2023/04/01 03:30:34;;;;;;;21.05;9.88;;;9.80;92.00;;;;;;5004006;28;20038;-74
2023/04/01 03:33:00;;;;;;;17.98;9.45;;;9.80;92.20;;;;;;5007913;28;20123;-74
2023/04/01 03:35:27;;;;;;;16.67;9.50;;;9.80;92.50;;;;;;5006544;28;20030;-74
2023/04/01 03:37:53;;;;;;;20.90;11.35;;;9.70;92.80;;;;;;5004672;28;20072;-73
2023/04/01 03:40:19;;;;;;;18.70;9.32;;;9.70;93.00;;;;;;4994101;28;20036;-73
2023/04/01 03:42:45;;;;;;;18.45;9.38;;;9.70;93.10;;;;;;5019876;28;20128;-74
2023/04/01 03:45:14;;;;;;;16.63;8.85;;;9.70;93.20;;;;;;5005287;28;20045;-74
2023/04/01 03:47:40;;;;;;;18.85;8.85;;;9.70;93.30;;;;;;4989073;28;20058;-74
2023/04/01 03:50:07;;;;;;;17.63;9.65;;;9.60;93.50;;;;;;5008078;28;20034;-74
2023/04/01 03:52:33;;;;;;;19.00;10.05;;;9.60;93.60;;;;;;5005509;28;20038;-75
2023/04/01 03:55:00;;;;;;;19.23;11.38;;;9.60;93.60;;;;;;5000548;28;20050;-75
2023/04/01 03:57:26;;;;;;;20.58;10.73;;;9.60;93.60;;;;;;5003330;28;20034;-75
2023/04/01 03:59:51;;;;;;;19.52;12.15;;;9.60;93.60;;;;;;5007111;28;20386;-74
2023/04/01 04:02:17;;;;;;;23.20;13.25;;;9.60;93.50;;;;;;4989858;28;20054;-74
2023/04/01 04:04:43;;;;;;;21.75;12.32;;;9.60;93.30;;;;;;5011080;28;20072;-74
2023/04/01 04:07:09;;;;;;;20.27;11.55;;;9.60;93.30;;;;;;5007272;28;20033;-74
2023/04/01 04:09:35;;;;;;;25.38;13.35;;;9.60;93.20;;;;;;5007224;28;20037;-74
2023/04/01 04:12:01;;;;;;;23.92;13.05;;;9.60;93.00;;;;;;5007699;28;20034;-75
2023/04/01 04:14:27;;;;;;;22.17;12.98;;;9.60;93.00;;;;;;5006915;28;20030;-74
2023/04/01 04:16:52;;;;;;;26.00;12.95;;;9.60;93.00;;;;;;5009095;28;20092;-74
2023/04/01 04:19:19;;;;;;;23.45;12.55;;;9.60;93.10;;;;;;5008181;28;20465;-74
2023/04/01 04:21:44;;;;;;;23.77;11.07;;;9.60;93.10;;;;;;5004612;28;20035;-76
2023/04/01 04:24:10;;;;;;;20.75;11.10;;;9.60;92.90;;;;;;5010972;28;20352;-75
2023/04/01 04:26:36;;;;;;;19.67;11.15;;;9.60;92.90;;;;;;4990388;28;20030;-75
2023/04/01 04:29:02;;;;;;;21.35;11.35;;;9.50;92.90;;;;;;5005292;28;20105;-74
2023/04/01 04:31:28;;;;;;;21.40;11.60;;;9.60;92.90;;;;;;5007544;28;20061;-75
2023/04/01 04:33:55;;;;;;;20.85;11.98;;;9.50;92.90;;;;;;5008776;28;20057;-74
2023/04/01 04:36:21;;;;;;;25.13;12.55;;;9.50;92.90;;;;;;5008024;28;20046;-74
2023/04/01 04:38:47;;;;;;;22.80;12.38;;;9.50;93.00;;;;;;5008467;28;20022;-74
2023/04/01 04:41:14;;;;;;;19.35;12.35;;;9.50;93.00;;;;;;5004473;28;20038;-75
2023/04/01 04:43:41;;;;;;;20.92;11.82;;;9.50;92.90;;;;;;5006182;28;20026;-74
2023/04/01 04:46:08;;;;;;;22.20;11.93;;;9.50;92.80;;;;;;5009046;28;20061;-75
2023/04/01 04:48:35;;;;;;;24.48;12.55;;;9.50;92.70;;;;;;5009688;28;20136;-75
2023/04/01 04:51:01;;;;;;;21.25;12.48;;;9.60;92.60;;;;;;5011435;28;20390;-76
2023/04/01 04:53:27;;;;;;;22.58;11.43;;;9.60;92.50;;;;;;5006725;28;20027;-76
2023/04/01 04:55:53;;;;;;;21.23;11.80;;;9.60;92.50;;;;;;5008709;28;20367;-74
2023/04/01 04:58:19;;;;;;;21.05;11.57;;;9.60;92.40;;;;;;5006304;28;20041;-75
2023/04/01 05:00:45;;;;;;;19.58;10.52;;;9.50;92.20;;;;;;5007900;28;20025;-75
2023/04/01 05:03:12;;;;;;;21.65;11.55;;;9.60;92.20;;;;;;5007656;28;20087;-76
2023/04/01 05:05:39;;;;;;;19.42;11.23;;;9.60;92.20;;;;;;5004728;28;20103;-75
2023/04/01 05:08:05;;;;;;;20.60;11.10;;;9.60;92.10;;;;;;5008219;28;20045;-74
2023/04/01 05:10:31;;;;;;;21.05;12.30;;;9.60;92.10;;;;;;5007401;28;20479;-73
2023/04/01 05:12:58;;;;;;;21.85;11.52;;;9.60;92.00;;;;;;5006937;28;20048;-75
2023/04/01 05:15:23;;;;;;;17.73;11.00;;;9.50;92.00;;;;;;5004183;28;20037;-73
2023/04/01 05:17:49;;;;;;;20.45;11.73;;;9.60;91.80;;;;;;5007237;28;20050;-74
2023/04/01 05:20:15;;;;;;;24.63;12.70;;;9.50;91.90;;;;;;5008046;28;20045;-74
2023/04/01 05:22:42;;;;;;;25.15;12.82;;;9.60;91.90;;;;;;4984101;28;20038;-74
2023/04/01 05:25:08;;;;;;;18.95;11.90;;;9.60;91.70;;;;;;5006872;28;20029;-75
2023/04/01 05:27:33;;;;;;;16.27;11.60;;;9.50;91.50;;;;;;5004327;28;20038;-75
2023/04/01 05:29:59;;;;;;;19.73;9.98;;;9.60;91.40;;;;;;5003846;28;20170;-76
2023/04/01 05:32:26;;;;;;;17.15;10.38;;;9.50;91.40;;;;;;5006137;28;20040;-75
2023/04/01 05:34:52;;;;;;;17.00;9.30;;;9.50;91.30;;;;;;5006344;28;20025;-75
2023/04/01 05:37:18;;;;;;;16.17;10.00;;;9.50;91.40;;;;;;5005753;28;20173;-74
2023/04/01 05:39:43;;;;;;;21.00;10.38;;;9.60;91.50;;;;;;5003653;28;20466;-74
2023/04/01 05:42:09;;;;;;;19.38;9.65;;;9.60;91.50;;;;;;5012662;28;20409;-75
2023/04/01 05:44:35;;;;;;;17.88;10.07;;;9.60;91.40;;;;;;5022447;28;20042;-76
2023/04/01 05:47:03;;;;;;;20.67;9.77;;;9.60;91.50;;;;;;5006465;28;20135;-75
2023/04/01 05:49:28;;;;;;;13.40;8.05;;;9.60;91.50;;;;;;5005245;28;20261;-76
2023/04/01 05:51:54;;;;;;;16.13;9.05;;;9.50;91.60;;;;;;5013619;28;20382;-74
2023/04/01 05:54:20;;;;;;;20.02;9.25;;;9.50;91.90;;;;;;5007519;28;20021;-74
2023/04/01 05:56:46;;;;;;;16.30;9.38;;;9.50;92.00;;;;;;5005889;28;20516;-74
2023/04/01 05:59:12;;;;;;;18.45;10.98;;;9.50;92.00;;;;;;5004302;28;20034;-74
2023/04/01 06:01:38;;;;;;;18.95;9.77;;;9.50;92.10;;;;;;5001993;28;20046;-75
2023/04/01 06:04:04;;;;;;;19.60;11.00;;;9.50;92.30;;;;;;5006522;28;20026;-75
2023/04/01 06:06:32;;;;;;;17.98;10.70;;;9.50;92.40;;;;;;5008337;28;20056;-72
2023/04/01 06:09:07;;;;;;;18.90;10.63;;;9.50;92.60;;;;;;5005606;28;20017;-73
2023/04/01 06:12:14;;;;;;;18.70;9.82;;;9.50;92.70;;;;;;5013317;28;20041;-73
2023/04/01 06:15:15;;;;;;;15.23;10.38;;;9.40;92.70;;;;;;4959920;28;20038;-73
2023/04/01 06:17:52;;;;;;;17.25;10.93;;;9.50;92.90;;;;;;5023051;28;20037;-73
2023/04/01 06:20:47;;;;;;;17.83;10.20;;;9.40;93.00;;;;;;5007293;28;20032;-73
2023/04/01 06:23:36;;;;;;;17.60;10.27;;;9.40;93.00;;;;;;5013236;28;20108;-74
2023/04/01 06:26:13;;;;;;;16.88;9.85;;;9.40;93.10;;;;;;4982297;28;20042;-74
2023/04/01 06:28:39;;;;;;;18.05;9.70;;;9.40;93.10;;;;;;5005931;28;20030;-73
2023/04/01 06:31:35;;;;;;;15.55;8.35;;;9.40;93.20;;;;;;5003668;28;20097;-71
2023/04/01 06:34:30;;;;;;;16.27;8.60;;;9.30;93.30;;;;;;5006075;28;20140;-72
2023/04/01 06:37:05;;;;;;;14.70;8.68;;;9.40;93.30;;;;;;5005595;28;20126;-73
2023/04/01 06:39:57;;;;;;;16.58;8.68;;;9.40;93.40;;;;;;5010460;28;20040;-73
2023/04/01 06:42:40;;;;;;;12.57;7.75;;;9.40;93.40;;;;;;5006479;28;20046;-74
2023/04/01 06:45:28;;;;;;;15.38;7.82;;;9.50;93.40;;;;;;5010559;28;20045;-73
2023/04/01 06:48:20;;;;;;;11.48;7.10;;;9.40;93.40;;;;;;5002366;28;20645;-73
2023/04/01 06:51:01;;;;;;;12.02;6.97;;;9.40;93.40;;;;;;4998886;28;20033;-72
2023/04/01 06:53:43;;;;;;;12.73;6.57;;;9.30;93.50;;;;;;4998438;28;20029;-73
2023/04/01 06:56:14;;;;;;;9.88;6.20;;;9.30;93.50;;;;;;5003632;28;20041;-73
2023/04/01 06:58:51;;;;;;;10.45;5.88;;;9.30;93.50;;;;;;4994813;28;20034;-73
2023/04/01 07:01:23;;;;;;;10.30;5.40;;;9.30;93.50;;;;;;5007074;28;20041;-72
2023/04/01 07:03:58;;;;;;;10.45;5.05;;;9.30;93.50;;;;;;5020941;28;20466;-73
2023/04/01 07:06:27;;;;;;;;;;;9.40;93.40;;;;;;5005730;28;20061;-72
2023/04/01 07:08:55;;;;;;;9.57;5.22;;;9.40;93.40;;;;;;5009824;28;19913;-73
2023/04/01 07:11:37;;;;;;;10.10;4.60;;;9.30;93.30;;;;;;5004701;28;20037;-73
2023/04/01 07:14:25;;;;;;;9.05;4.68;;;9.30;93.30;;;;;;5003937;28;20403;-72
2023/04/01 07:17:08;;;;;;;11.30;5.32;;;9.30;93.30;;;;;;5012742;28;20030;-72
2023/04/01 07:20:10;;;;;;;9.48;5.25;;;9.40;93.30;;;;;;5006566;28;20053;-74
2023/04/01 07:22:40;;;;;;;10.27;5.45;;;9.40;93.40;;;;;;4978342;28;20108;-73
2023/04/01 07:25:21;;;;;;;9.50;5.43;;;9.40;93.40;;;;;;5000793;28;20030;-74
2023/04/01 07:27:47;;;;;;;11.93;5.55;;;9.40;93.40;;;;;;5000014;28;20067;-73
2023/04/01 07:30:18;;;;;;;10.23;5.65;;;9.40;93.40;;;;;;5012920;28;20037;-74
2023/04/01 07:33:28;;;;;;;10.63;5.13;;;9.50;93.40;;;;;;5000291;28;20600;-73
2023/04/01 07:36:21;;;;;;;10.20;4.80;;;9.50;93.30;;;;;;4997170;28;20049;-75
2023/04/01 07:39:06;;;;;;;9.85;5.15;;;9.60;93.40;;;;;;5006072;28;20108;-73
2023/04/01 07:41:48;;;;;;;10.57;4.93;;;9.60;93.20;;;;;;5006167;28;20046;-73
2023/04/01 07:44:55;;;;;;;9.45;4.70;;;9.50;93.20;;;;;;5008181;28;20033;-73
2023/04/01 07:47:25;;;;;;;11.70;4.90;;;9.50;93.20;;;;;;5013767;28;20050;-75
2023/04/01 07:50:20;;;;;;;11.85;4.93;;;9.50;93.30;;;;;;5023196;28;20508;-75
2023/04/01 07:53:04;;;;;;;9.57;4.90;;;9.60;93.20;;;;;;5021845;28;20044;-73
2023/04/01 07:55:53;;;;;;;9.35;4.85;;;9.60;93.10;;;;;;5013497;28;20017;-73
2023/04/01 07:58:24;;;;;;;8.15;4.30;;;9.70;93.00;;;;;;5015082;28;20536;-73
2023/04/01 08:01:06;;;;;;;8.15;4.10;;;9.70;92.80;;;;;;5010199;28;20481;-73
2023/04/01 08:03:39;;;;;;;6.93;4.22;;;9.60;92.80;;;;;;5011731;28;20099;-74
2023/04/01 08:06:04;;;;;;;8.20;4.25;;;9.60;92.80;;;;;;5017726;28;20548;-75
2023/04/01 08:08:40;;;;;;;10.68;4.95;;;9.60;92.60;;;;;;5021815;28;20037;-73
2023/04/01 08:11:31;;;;;;;8.50;4.45;;;9.70;92.80;;;;;;5016091;28;20045;-74
2023/04/01 08:14:15;;;;;;;11.27;5.32;;;9.70;92.60;;;;;;5009065;28;20541;-74
2023/04/01 08:17:13;;;;;;;10.20;4.93;;;9.90;92.70;;;;;;5009822;28;20121;-74
2023/04/01 08:20:10;;;;;;;11.05;4.75;;;9.90;92.40;;;;;;5007338;28;20121;-73
2023/04/01 08:22:53;;;;;;;11.57;5.30;;;9.80;92.30;;;;;;5019979;28;20098;-75
2023/04/01 08:25:30;;;;;;;11.63;5.68;;;9.80;92.30;;;;;;5005649;28;20025;-74
2023/04/01 08:27:59;;;;;;;9.68;5.57;;;9.90;92.30;;;;;;5019641;28;20071;-74
2023/04/01 08:30:52;;;;;;;10.70;5.90;;;9.90;92.40;;;;;;5019243;28;20037;-74
2023/04/01 08:33:25;;;;;;;10.50;5.10;;;9.90;92.50;;;;;;5003976;28;20042;-74
2023/04/01 08:36:15;;;;;;;8.43;5.30;;;9.90;92.30;;;;;;5023435;28;20034;-75
2023/04/01 08:38:44;;;;;;;7.38;4.65;;;10.00;92.50;;;;;;5015258;28;20017;-74
2023/04/01 08:41:09;;;;;;;8.23;4.20;;;10.10;92.50;;;;;;5009965;28;20047;-75
2023/04/01 08:43:54;;;;;;;6.75;4.15;;;10.10;92.40;;;;;;5009937;28;20038;-76
2023/04/01 08:46:41;;;;;;;7.63;4.13;;;10.10;92.50;;;;;;5012990;28;20034;-74
2023/04/01 08:49:46;;;;;;;6.07;3.17;;;10.10;92.50;;;;;;5006787;28;20061;-74
2023/04/01 08:52:34;;;;;;;6.63;3.08;;;10.10;92.40;;;;;;5018285;28;20042;-73
2023/04/01 08:55:03;;;;;;;7.82;3.55;;;10.10;92.30;;;;;;5025111;28;20497;-73
2023/04/01 08:57:46;;;;;;;8.57;3.72;;;10.00;92.10;;;;;;5014059;28;20041;-75
2023/04/01 09:00:32;;;;;;;6.63;3.20;;;10.00;92.40;;;;;;5017084;28;20312;-75
2023/04/01 09:03:11;;;;;;;8.55;4.13;;;10.10;92.50;;;;;;5000893;28;20122;-75
2023/04/01 09:05:52;;;;;;;8.60;3.90;;;10.00;92.30;;;;;;5005580;28;20110;-75
2023/04/01 09:08:47;;;;;;;8.05;3.90;;;10.00;92.10;;;;;;5009286;28;20041;-75
2023/04/01 09:11:33;;;;;;;9.95;4.60;;;10.00;92.10;;;;;;5020112;28;20131;-75
2023/04/01 09:14:22;;;;;;;9.35;4.40;;;10.10;92.30;;;;;;5017553;28;20101;-75
2023/04/01 09:17:01;;;;;;;11.95;4.60;;;10.10;92.30;;;;;;5013521;28;20072;-75
2023/04/01 09:20:14;;;;;;;7.38;4.07;;;10.10;92.10;;;;;;5018380;28;20022;-74
2023/04/01 09:22:53;;;;;;;9.45;4.40;;;10.10;91.90;;;;;;5004837;28;20038;-74
2023/04/01 09:25:29;;;;;;;7.00;3.85;;;10.00;91.80;;;;;;5006415;28;20030;-74
2023/04/01 09:28:18;;;;;;;11.15;4.72;;;10.10;91.80;;;;;;5014512;28;20084;-74
2023/04/01 09:31:02;;;;;;;8.35;4.53;;;10.20;91.70;;;;;;5011352;28;20026;-74
2023/04/01 09:33:59;;;;;;;9.60;5.50;;;10.20;91.10;;;;;;5006906;28;20125;-74
2023/04/01 09:36:40;;;;;;;9.82;4.47;;;10.40;91.10;;;;;;5005767;28;20560;-73
2023/04/01 09:39:31;;;;;;;12.02;5.40;;;10.40;90.60;;;;;;5011975;28;20390;-74
2023/04/01 09:42:00;;;;;;;8.90;4.90;;;10.50;90.60;;;;;;4997895;28;20046;-74
2023/04/01 09:44:35;;;;;;;7.35;3.70;;;10.50;90.80;;;;;;4997705;28;20042;-74
2023/04/01 09:47:14;;;;;;;6.25;3.20;;;10.30;90.30;;;;;;5000302;28;20053;-75
2023/04/01 09:49:52;;;;;;;7.10;3.13;;;10.30;90.60;;;;;;5008218;28;20359;-74
2023/04/01 09:53:03;;;;;;;9.68;3.33;;;10.60;90.40;;;;;;4992163;28;20072;-74
2023/04/01 09:56:07;;;;;;;9.55;3.00;;;10.50;89.90;;;;;;4990531;28;20030;-75
2023/04/01 09:59:01;;;;;;;7.22;2.58;;;10.50;89.60;;;;;;4997685;28;20429;-74
2023/04/01 10:01:45;;;;;;;5.80;2.17;;;10.60;89.60;;;;;;4992589;28;20410;-74
2023/04/01 10:04:38;;;;;;;2.70;1.75;;;10.70;89.70;;;;;;4990904;28;20057;-74
2023/04/01 10:07:04;;;;;;;5.18;2.10;;;10.50;88.50;;;;;;4996021;28;20100;-72
2023/04/01 10:10:04;;;;;;;4.70;2.05;;;10.40;88.80;;;;;;4995171;28;20115;-74
2023/04/01 10:13:01;;;;;;;6.13;2.47;;;10.60;89.10;;;;;;4991132;28;20034;-74
2023/04/01 10:16:08;;;;;;;4.65;2.30;;;10.60;88.20;;;;;;4972621;28;20042;-75
2023/04/01 10:19:10;;;;;;;5.35;2.40;;;10.70;88.70;;;;;;4974175;28;20037;-74
2023/04/01 10:22:04;;;;;;;8.32;2.85;;;10.50;88.60;;;;;;4991630;28;20265;-74
2023/04/01 10:25:04;;;;;;;7.55;3.10;;;10.60;89.30;;;;;;4975676;28;20034;-75
2023/04/01 10:28:10;;;;;;;5.55;2.50;;;10.50;88.70;;;;;;4987505;28;20038;-74
2023/04/01 10:30:53;;;;;;;6.70;2.60;;;10.30;88.50;;;;;;4951044;28;20121;-74
2023/04/01 10:34:02;;;;;;;4.75;2.22;;;10.50;89.20;;;;;;4954155;28;20039;-75
2023/04/01 10:36:48;;;;;;;5.32;2.30;;;10.50;88.90;;;;;;4985856;28;20075;-74
2023/04/01 10:40:00;;;;;;;4.68;2.05;;;10.60;89.10;;;;;;5005508;28;20108;-74
2023/04/01 10:42:52;;;;;;;6.40;2.75;;;10.60;88.90;;;;;;4985328;28;20157;-74
2023/04/01 10:45:52;;;;;;;4.70;2.53;;;10.40;88.70;;;;;;4995796;28;20029;-75
2023/04/01 10:48:24;;;;;;;6.18;2.70;;;10.20;88.40;;;;;;4994564;28;20054;-74
2023/04/01 10:51:31;;;;;;;6.35;3.70;;;10.30;89.10;;;;;;4990774;28;20034;-74
2023/04/01 10:54:39;;;;;;;8.73;3.95;;;10.20;88.60;;;;;;4997016;28;20115;-74
2023/04/01 10:57:24;;;;;;;10.93;3.70;;;10.10;88.20;;;;;;4991188;28;20049;-74
2023/04/01 11:00:01;;;;;;;6.80;3.40;;;10.30;88.60;;;;;;4990682;28;20053;-74
2023/04/01 11:03:04;;;;;;;6.35;2.97;;;10.20;88.40;;;;;;4993134;28;20042;-74
2023/04/01 11:06:09;;;;;;;8.25;3.58;;;10.20;88.50;;;;;;4994773;28;20561;-74
2023/04/01 11:09:12;;;;;;;9.02;3.72;;;10.20;88.40;;;;;;4980705;28;20148;-75
2023/04/01 11:12:14;;;;;;;8.70;3.83;;;10.10;88.70;;;;;;4993749;28;20037;-74
2023/04/01 11:15:04;;;;;;;6.47;3.60;;;10.00;89.00;;;;;;4978893;28;20502;-74
2023/04/01 11:17:52;;;;;;;8.38;4.32;;;10.00;89.10;;;;;;4993735;28;20136;-74
2023/04/01 11:20:30;;;;;;;9.75;4.78;;;10.10;89.10;;;;;;5008621;28;20036;-74
2023/04/01 11:23:01;;;;;;;9.10;4.97;;;10.10;88.70;;;;;;5004388;28;20048;-74
2023/04/01 11:25:42;;;;;;;9.70;4.80;;;10.10;88.50;;;;;;5004890;28;20033;-72
2023/04/01 11:28:16;;;;;;;9.48;4.85;;;10.20;88.80;;;;;;4983482;28;20049;-75
2023/04/01 11:31:03;;;;;;;8.15;3.53;;;10.30;88.80;;;;;;5008521;28;20474;-74
2023/04/01 11:33:48;;;;;;;7.50;4.00;;;10.30;87.80;;;;;;5015349;28;20029;-74
2023/04/01 11:36:44;;;;;;;7.22;3.65;;;10.40;87.60;;;;;;4998403;28;20031;-75
2023/04/01 11:39:27;;;;;;;7.68;3.70;;;10.50;87.70;;;;;;5004125;28;20043;-75
2023/04/01 11:42:18;;;;;;;6.75;3.00;;;10.20;87.30;;;;;;5002665;28;20042;-75
2023/04/01 11:45:22;;;;;;;9.75;3.60;;;10.20;87.40;;;;;;5005675;28;20034;-74
2023/04/01 11:47:56;;;;;;;9.65;3.40;;;10.10;87.50;;;;;;4969357;28;20057;-74
2023/04/01 11:50:38;;;;;;;7.03;3.22;;;10.20;88.00;;;;;;5001673;28;20056;-74
2023/04/01 11:53:38;;;;;;;8.00;3.60;;;10.40;88.30;;;;;;5015396;28;20041;-74
2023/04/01 11:56:19;;;;;;;5.85;3.30;;;10.60;87.30;;;;;;4999727;28;20593;-74
2023/04/01 11:59:03;;;;;;;6.85;3.20;;;10.30;87.20;;;;;;5000982;28;20105;-74
2023/04/01 12:01:47;;;;;;;7.00;2.88;;;10.20;87.60;;;;;;5008646;28;20058;-74
2023/04/01 12:04:21;;;;;;;7.95;3.20;;;10.10;87.70;;;;;;5014487;28;20038;-74
2023/04/01 12:07:11;;;;;;;;;;;10.30;88.30;;;;;;4996077;28;20046;-74
2023/04/01 12:09:56;;;;;;;6.80;3.40;;;10.30;87.80;;;;;;5013169;28;20362;-74
2023/04/01 12:12:46;;;;;;;5.85;3.03;;;10.50;87.80;;;;;;5006939;28;20141;-74
2023/04/01 12:15:41;;;;;;;5.72;2.80;;;10.60;87.10;;;;;;4999728;28;20023;-75
2023/04/01 12:18:39;;;;;;;6.90;3.35;;;10.60;87.20;;;;;;5003710;28;20060;-73
2023/04/01 12:21:42;;;;;;;6.45;2.90;;;10.60;87.40;;;;;;5005862;28;20042;-74
2023/04/01 12:24:47;;;;;;;5.13;2.90;;;10.50;87.80;;;;;;5015582;28;20030;-73
2023/04/01 12:27:41;;;;;;;4.28;2.53;;;10.40;88.20;;;;;;5001734;28;20069;-74
2023/04/01 12:30:48;;;;;;;4.40;1.80;;;10.30;88.50;;;;;;5008667;28;20022;-73
2023/04/01 12:33:26;;;;;;;4.93;2.20;;;10.20;88.20;;;;;;4977303;28;20120;-73
2023/04/01 12:36:00;;;;;;;5.25;2.10;;;10.40;88.60;;;;;;5014344;28;20044;-73
2023/04/01 12:38:32;;;;;;;5.85;2.30;;;10.50;88.20;;;;;;5006531;28;20026;-73
2023/04/01 12:41:17;;;;;;;4.88;2.15;;;10.50;88.50;;;;;;5007981;28;20038;-73
2023/04/01 12:44:08;;;;;;;5.15;1.77;;;10.60;88.40;;;;;;5009112;28;20030;-72
2023/04/01 12:46:34;;;;;;;3.38;1.88;;;10.50;88.40;;;;;;5010043;28;20046;-73
2023/04/01 12:49:00;;;;;;;4.25;1.90;;;10.40;88.90;;;;;;5025003;28;20217;-73
2023/04/01 12:51:47;;;;;;;3.85;1.67;;;10.30;89.10;;;;;;5017900;28;20437;-74
2023/04/01 12:54:47;;;;;;;4.53;2.10;;;10.30;89.10;;;;;;5009129;28;20034;-73
2023/04/01 12:57:28;;;;;;;3.55;1.88;;;10.10;89.50;;;;;;5006132;28;20057;-73
2023/04/01 13:00:26;;;;;;;4.57;2.10;;;10.10;89.60;;;;;;5009980;28;20077;-74
2023/04/01 13:03:06;;;;;;;8.30;3.15;;;10.10;89.70;;;;;;4973789;28;20042;-73
2023/04/01 13:06:09;;;;;;;5.55;2.15;;;10.10;89.90;;;;;;5004837;28;20026;-73
2023/04/01 13:08:54;;;;;;;4.28;2.05;;;9.90;89.90;;;;;;4997110;28;20173;-74
2023/04/01 13:11:38;;;;;;;3.78;1.90;;;9.90;90.10;;;;;;5004800;28;20095;-74
2023/04/01 13:14:50;;;;;;;5.38;1.70;;;9.90;90.40;;;;;;5009461;28;20026;-74
2023/04/01 13:17:28;;;;;;;5.22;1.85;;;10.00;90.00;;;;;;4995870;28;20041;-74
2023/04/01 13:20:09;;;;;;;4.55;2.00;;;9.90;89.80;;;;;;5004667;28;20105;-74
2023/04/01 13:22:56;;;;;;;2.35;1.52;;;10.00;90.20;;;;;;5004038;28;20904;-74
2023/04/01 13:25:36;;;;;;;5.07;1.95;;;9.90;90.10;;;;;;5008322;28;20044;-76
2023/04/01 13:28:25;;;;;;;2.60;1.70;;;10.00;90.30;;;;;;5009573;28;20030;-77
2023/04/01 13:31:00;;;;;;;3.13;1.60;;;9.90;89.90;;;;;;5001395;28;20029;-75
2023/04/01 13:33:56;;;;;;;3.50;1.52;;;9.90;89.90;;;;;;5005501;28;20366;-77
2023/04/01 13:36:39;;;;;;;6.25;1.80;;;9.70;89.90;;;;;;5001333;28;20041;-76
2023/04/01 13:39:14;;;;;;;3.70;2.05;;;9.80;90.30;;;;;;5008071;28;20026;-76